METAR* REPORTS - Stations within 60 miles

(*Meteorological Terminal Aviation Routine weather report)

 

KRDG - Reading, Pennsylvania, USA
Distance from station: SE 19mi, 31km
Updated: Sat, 26-May-2018 4:54pm EDT
Clear
Clear
 Wind from W
Wind: W 7 mph , 11 km/h
Temperature: 90°F , 32°C
Heat Index: 93°F , 34°C
Dew Point: 66°F , 19°C
Humidity: 46%
Barometer: 29.79 inHg , 1008.8 hPa
Clouds: Clear
Visibility: 10 miles , 16 km
2018/05/26 20:54 KRDG 262054Z 28006KT 10SM CLR 32/19 A2979 RMK AO2 SLP091 T03170194 55004
KLNS - Lancaster, Pennsylvania, USA
Distance from station: S 33mi, 53km
Updated: Sat, 26-May-2018 4:53pm EDT
Few Clouds
Few Clouds
 Wind from WSW
Wind: WSW 9 mph , 15 km/h, Gust: 16 mph , 26 km/h
Temperature: 90°F , 32°C
Heat Index: 91°F , 33°C
Dew Point: 63°F , 17°C
Humidity: 41%
Barometer: 29.80 inHg , 1009.1 hPa
Clouds: Few Clouds
Visibility: 10 miles , 16 km
Cloud details: Few Clouds 8500 ft
2018/05/26 20:53 KLNS 262053Z 24008G14KT 10SM FEW085 32/17 A2980 RMK AO2 SLP088 T03170172 55008
 
KSEG - Selinsgrove, Pennsylvania, USA
Distance from station: WNW 39mi, 62km
Updated: Sat, 26-May-2018 4:53pm EDT
Clear
Clear
 Wind from S
Wind: S 6 mph , 9 km/h
Temperature: 86°F , 30°C
Heat Index: 88°F , 31°C
Dew Point: 66°F , 19°C
Humidity: 52%
Barometer: 29.80 inHg , 1009.1 hPa
Clouds: Clear
Visibility: 10 miles , 16 km
2018/05/26 20:53 KSEG 262053Z AUTO 18005KT 10SM CLR 30/19 A2980 RMK AO2 SLP088 T03000194 55008
KABE - Allentown, Pennsylvania, USA
Distance from station: E 39mi, 63km
Updated: Wed, 31-Dec-1969 7:00pm EST
NOT Current
unable to load KABE data RC=404 Not Found
unable to load KABE data RC=404 Not Found
 
 
KMDT - Middletown, Pennsylvania, USA
Distance from station: SW 40mi, 65km
Updated: Sat, 26-May-2018 4:56pm EDT
Partly Cloudy
Partly Cloudy
 Wind from varies
Wind: varies 5 mph , 7 km/h
Temperature: 90°F , 32°C
Dew Point: 59°F , 15°C
Humidity: 36%
Barometer: 29.79 inHg , 1008.8 hPa
Clouds: Partly Cloudy
Visibility: 10 miles , 16 km
Cloud details: Few Clouds 5000 ft
Partly Cloudy 18000 ft
2018/05/26 20:56 KMDT 262056Z VRB04KT 10SM FEW050 SCT180 32/15 A2979 RMK AO2 SLP085 T03220150 55009
KPTW - Pottstown, Pennsylvania, USA
Distance from station: SE 42mi, 67km
Updated: Sat, 26-May-2018 4:54pm EDT
Few Clouds
Few Clouds
 Wind from SW
Wind: SW 7 mph , 11 km/h
Temperature: 88°F , 31°C
Heat Index: 89°F , 32°C
Dew Point: 63°F , 17°C
Humidity: 43%
Barometer: 29.82 inHg , 1009.8 hPa
Clouds: Few Clouds
Visibility: 8 miles , 13 km
Cloud details: Few Clouds 6500 ft
2018/05/26 20:54 KPTW 262054Z AUTO 23006KT 8SM FEW065 31/17 A2982 RMK AO2 LTG DSNT S SLP092 T03060167 55008
 
KCXY - Harrisburg, Pennsylvania, USA
Distance from station: SW 43mi, 69km
Updated: Sat, 26-May-2018 4:56pm EDT
Clear
Clear
 Wind from W
Wind: W 8 mph , 13 km/h
Temperature: 91°F , 33°C
Dew Point: 57°F , 14°C
Humidity: 32%
Barometer: 29.79 inHg , 1008.8 hPa
Clouds: Clear
Visibility: 10 miles , 16 km
2018/05/26 20:56 KCXY 262056Z 26007KT 10SM CLR 33/14 A2979
KUKT - Quakertown Arp, Pennsylvania, USA
Distance from station: ESE 44mi, 70km
Updated: Sat, 26-May-2018 5:15pm EDT
Clear
Clear
 Wind from calm
Wind: Calm
Temperature: 90°F , 32°C
Heat Index: 91°F , 33°C
Dew Point: 63°F , 17°C
Humidity: 41%
Barometer: 29.82 inHg , 1009.8 hPa
Clouds: Clear
Visibility: 10 miles , 16 km
2018/05/26 21:15 KUKT 262115Z AUTO 00000KT 10SM CLR 32/17 A2982 RMK A01
 
KMQS - Coatesville, Pennsylvania, USA
Distance from station: SSE 45mi, 72km
Updated: Sat, 26-May-2018 5:15pm EDT
Partly Cloudy
Partly Cloudy
 Wind from varies
Wind: varies 3 mph , 6 km/h
Temperature: 84°F , 29°C
Heat Index: 89°F , 32°C
Dew Point: 72°F , 22°C
Humidity: 66%
Barometer: 29.84 inHg , 1010.5 hPa
Clouds: Partly Cloudy
Visibility: 10 miles , 16 km
Cloud details: Few Clouds 5500 ft
Partly Cloudy 7500 ft
2018/05/26 21:15 KMQS 262115Z AUTO VRB03KT 10SM FEW055 SCT075 29/22 A2984 RMK AO2
KMPO - Mt. Pocono, Pennsylvania, USA
Distance from station: NE 57mi, 92km
Updated: Sat, 26-May-2018 4:53pm EDT
Few Clouds
Few Clouds
 Wind from NW
Wind: NW 8 mph , 13 km/h
Temperature: 81°F , 27°C
Dew Point: 50°F , 10°C
Humidity: 34%
Barometer: 29.89 inHg , 1012.2 hPa
Clouds: Few Clouds
Visibility: 10 miles , 16 km
Cloud details: Few Clouds 7500 ft
2018/05/26 20:53 KMPO 262053Z AUTO 31007KT 10SM FEW075 27/10 A2989 RMK AO2 SLP109 T02670100 55000
 
KAVP - Avoca/Wilkes B., Pennsylvania, USA
Distance from station: NNE 58mi, 93km
Updated: Sat, 26-May-2018 4:54pm EDT
Clear
Clear
 Wind from calm
Wind: Calm
Temperature: 88°F , 31°C
Dew Point: 54°F , 12°C
Humidity: 31%
Barometer: 29.83 inHg , 1010.2 hPa
Clouds: Clear
Visibility: 10 miles , 16 km
2018/05/26 20:54 KAVP 262054Z 00000KT 10SM CLR 31/12 A2983 RMK AO2 SLP091 T03060117 55003
KTHV - York, Pennsylvania, USA
Distance from station: SW 59mi, 94km
Updated: Sat, 26-May-2018 4:53pm EDT
Partly Cloudy
Partly Cloudy
 Wind from calm
Wind: Calm
Temperature: 86°F , 30°C
Heat Index: 87°F , 31°C
Dew Point: 63°F , 17°C
Humidity: 46%
Barometer: 29.80 inHg , 1009.1 hPa
Clouds: Partly Cloudy
Visibility: 10 miles , 16 km
Cloud details: Partly Cloudy 6500 ft
2018/05/26 20:53 KTHV 262053Z AUTO 00000KT 10SM SCT065 30/17 A2980 RMK AO2 SLP091 T03000172 55011
 
KDYL - Doylestown, Pennsylvania, USA
Distance from station: ESE 59mi, 95km
Updated: Sat, 26-May-2018 4:54pm EDT
Clear
Clear
 Wind from varies
Wind: varies 6 mph , 9 km/h
Temperature: 88°F , 31°C
Heat Index: 89°F , 32°C
Dew Point: 63°F , 17°C
Humidity: 43%
Barometer: 29.80 inHg , 1009.1 hPa
Clouds: Clear
Visibility: 10 miles , 16 km
2018/05/26 20:54 KDYL 262054Z AUTO VRB05KT 10SM CLR 31/17 A2980 RMK AO2 LTG DSNT SW SLP084 T03110167 55006
KIPT - Williamsport, Pennsylvania, USA
Distance from station: NW 60mi, 96km
Updated: Sat, 26-May-2018 4:54pm EDT
Clear
Clear
 Wind from calm
Wind: Calm
Temperature: 88°F , 31°C
Dew Point: 52°F , 11°C
Humidity: 29%
Barometer: 29.78 inHg , 1008.5 hPa
Clouds: Clear
Visibility: 10 miles , 16 km
2018/05/26 20:54 KIPT 262054Z 00000KT 10SM CLR 31/11 A2978 RMK AO2 SLP082 T03110111 55008